Time;durP1;ratioP1;P1;durP2;ratioP2;P2;SDS_P1;SDS_P2;PMS_P1;PMS_P2;Temp;Humidity;BMP_temperature;BMP_pressure;BME280_temperature;BME280_humidity;BME280_pressure;Samples;Min_cycle;Max_cycle;Signal;HPM_P1;HPM_P2
2022/06/10 00:09:34;;;;;;;10.47;7.13;;;;;;;20.53;100.00;100134.00;713982;1177;115863;-81
2022/06/10 00:24:36;;;;;;;12.80;8.15;;;;;;;20.62;100.00;100154.09;713718;1177;114675;-81
2022/06/10 00:39:39;;;;;;;9.70;7.33;;;;;;;20.64;100.00;100156.58;713645;1178;114718;-81
2022/06/10 00:54:44;;;;;;;11.53;8.33;;;;;;;20.50;100.00;100177.05;713720;1180;114656;-81
2022/06/10 01:09:51;;;;;;;12.53;9.68;;;;;;;20.42;100.00;100151.42;714036;1177;115918;-80
2022/06/10 01:25:18;;;;;;;16.45;11.75;;;;;;;20.51;100.00;100167.20;713994;1177;116059;-80
2022/06/10 01:40:55;;;;;;;17.75;12.80;;;;;;;20.25;100.00;100190.93;713862;1179;115021;-80
2022/06/10 01:56:08;;;;;;;13.27;10.73;;;;;;;19.98;100.00;100198.03;714027;1179;114934;-81
2022/06/10 02:11:17;;;;;;;14.00;10.85;;;;;;;20.04;100.00;100173.25;713927;1179;116127;-82
2022/06/10 02:26:21;;;;;;;14.60;11.97;;;;;;;19.97;100.00;100199.05;713974;1177;115765;-81
2022/06/10 02:42:03;;;;;;;16.38;12.28;;;;;;;19.86;100.00;100207.59;712944;1179;116450;-80
2022/06/10 02:57:15;;;;;;;18.67;12.93;;;;;;;19.89;100.00;100236.49;714050;1177;116536;-80
2022/06/10 03:12:29;;;;;;;14.77;9.23;;;;;;;19.82;100.00;100243.61;713959;1177;114750;-80
2022/06/10 03:27:47;;;;;;;16.55;9.80;;;;;;;19.83;100.00;100277.20;713850;1178;115691;-81
2022/06/10 03:42:53;;;;;;;11.70;9.73;;;;;;;19.77;100.00;100300.88;714145;1177;115790;-80
2022/06/10 03:57:55;;;;;;;13.27;10.30;;;;;;;19.98;100.00;100331.14;714393;1177;116184;-79
2022/06/10 04:13:01;;;;;;;12.60;10.23;;;;;;;20.00;100.00;100353.05;713995;1179;116318;-81
2022/06/10 04:28:05;;;;;;;13.13;9.55;;;;;;;19.83;100.00;100363.17;713852;1180;115933;-81
2022/06/10 04:43:09;;;;;;;13.47;9.63;;;;;;;19.94;100.00;100391.09;713969;1180;116547;-80
2022/06/10 04:58:13;;;;;;;13.28;9.55;;;;;;;19.91;100.00;100410.13;713721;1179;115355;-80
2022/06/10 05:13:16;;;;;;;15.30;8.90;;;;;;;19.99;100.00;100407.30;713897;1177;116116;-80
2022/06/10 05:28:20;;;;;;;15.90;11.10;;;;;;;20.03;100.00;100450.34;713776;1177;114634;-81
2022/06/10 05:43:23;;;;;;;13.43;9.80;;;;;;;20.37;100.00;100449.55;714037;1177;114754;-80
2022/06/10 05:58:25;;;;;;;13.10;10.15;;;;;;;20.48;100.00;100448.17;713790;1178;114625;-79
2022/06/10 06:13:28;;;;;;;16.77;10.93;;;;;;;20.70;100.00;100480.11;714199;1179;114916;-79
2022/06/10 06:28:31;;;;;;;16.93;11.48;;;;;;;20.88;100.00;100483.06;714204;1178;115582;-83
2022/06/10 06:43:34;;;;;;;17.95;12.85;;;;;;;20.95;100.00;100501.75;712638;1179;115943;-84
2022/06/10 06:58:36;;;;;;;12.07;8.70;;;;;;;20.75;100.00;100514.99;712703;1177;117196;-79
2022/06/10 07:13:39;;;;;;;14.40;10.70;;;;;;;20.34;100.00;100529.05;712335;1180;116338;-80
2022/06/10 07:28:42;;;;;;;14.00;10.55;;;;;;;20.13;100.00;100560.02;713099;1177;116429;-80
2022/06/10 07:43:45;;;;;;;14.30;11.20;;;;;;;20.08;100.00;100568.56;712771;1178;116499;-81
2022/06/10 07:58:47;;;;;;;14.05;10.68;;;;;;;20.29;100.00;100586.37;713323;1180;116203;-69
2022/06/10 08:13:50;;;;;;;13.40;9.55;;;;;;;19.85;100.00;100613.18;713212;1178;116153;-71
2022/06/10 08:28:54;;;;;;;10.68;9.35;;;;;;;19.59;100.00;100622.50;714687;1180;115495;-70
2022/06/10 08:44:05;;;;;;;20.80;15.10;;;;;;;19.68;100.00;100642.67;713941;1180;115028;-70
2022/06/10 08:59:34;;;;;;;19.33;14.03;;;;;;;19.77;100.00;100649.53;714239;1178;116221;-69
2022/06/10 09:14:36;;;;;;;18.40;14.48;;;;;;;19.73;100.00;100661.56;714104;1180;116188;-70
2022/06/10 09:30:03;;;;;;;;;;;;;;;;;;;;;
2022/06/10 09:45:34;;;;;;;17.05;13.70;;;;;;;19.98;100.00;100703.02;713999;1179;114881;-70
2022/06/10 10:00:56;;;;;;;30.20;21.75;;;;;;;20.35;100.00;100717.99;713642;1178;116224;-70
2022/06/10 10:16:26;;;;;;;15.27;12.13;;;;;;;20.91;100.00;100730.62;714280;1179;116368;-69
2022/06/10 10:31:34;;;;;;;14.73;12.73;;;;;;;21.68;100.00;100741.41;713282;1178;116538;-70
2022/06/10 10:46:56;;;;;;;11.00;9.73;;;;;;;22.16;100.00;100747.77;713372;1179;115875;-76
2022/06/10 11:02:01;;;;;;;13.28;9.63;;;;;;;22.55;100.00;100762.30;713460;1180;117627;-74
2022/06/10 11:17:11;;;;;;;11.15;8.85;;;;;;;22.32;100.00;100760.78;716049;1179;115863;-75
2022/06/10 11:32:24;;;;;;;9.70;7.55;;;;;;;22.18;100.00;100751.08;718719;1179;115763;-73
2022/06/10 11:47:38;;;;;;;9.40;6.47;;;;;;;24.35;100.00;100766.55;713745;1180;115548;-73
2022/06/10 12:02:49;;;;;;;7.40;4.70;;;;;;;24.41;100.00;100752.30;712957;1180;114789;-74
2022/06/10 12:17:57;;;;;;;7.03;4.75;;;;;;;23.62;100.00;100754.24;712925;1177;115621;-75
2022/06/10 12:33:17;;;;;;;9.87;6.37;;;;;;;22.66;100.00;100767.06;713201;1180;115930;-74
2022/06/10 12:48:27;;;;;;;8.90;7.10;;;;;;;21.90;100.00;100781.38;712645;1177;115121;-73
2022/06/10 13:03:31;;;;;;;10.35;8.00;;;;;;;21.23;100.00;100799.59;712729;1177;115530;-73
2022/06/10 13:18:35;;;;;;;11.70;7.20;;;;;;;23.39;100.00;100793.02;713344;1177;116200;-74
2022/06/10 13:34:01;;;;;;;6.40;5.30;;;;;;;24.33;97.20;100806.14;713093;1178;116156;-74
2022/06/10 14:04:46;;;;;;;11.43;4.73;;;;;;;25.68;90.47;100796.08;712882;1180;116190;-74
2022/06/10 14:19:56;;;;;;;5.50;3.98;;;;;;;25.82;88.37;100794.05;713195;1177;115767;-74
2022/06/10 14:35:03;;;;;;;6.77;5.00;;;;;;;26.04;86.08;100783.70;712520;1179;115893;-74
2022/06/10 14:50:18;;;;;;;5.55;4.15;;;;;;;26.28;83.98;100770.36;712953;1180;114392;-73
2022/06/10 15:20:45;;;;;;;4.95;3.83;;;;;;;26.22;83.44;100766.72;713037;1180;115246;-72
2022/06/10 15:51:33;;;;;;;4.83;3.37;;;;;;;25.59;82.14;100762.50;712652;1179;115266;-74
2022/06/10 16:06:35;;;;;;;4.27;2.67;;;;;;;26.06;81.18;100757.42;712786;1177;114337;-74
2022/06/10 16:21:38;;;;;;;5.25;3.43;;;;;;;26.14;81.99;100780.45;712967;1179;115053;-74
2022/06/10 16:36:41;;;;;;;5.25;3.00;;;;;;;25.82;81.10;100779.81;713130;1177;114292;-73
2022/06/10 16:51:43;;;;;;;4.53;2.58;;;;;;;25.71;81.55;100802.88;712923;1178;114287;-73
2022/06/10 17:06:46;;;;;;;9.60;4.57;;;;;;;25.34;83.39;100818.88;712512;1179;114878;-73
2022/06/10 17:21:48;;;;;;;5.23;3.80;;;;;;;24.32;86.68;100827.81;712818;1180;115322;-74
2022/06/10 17:36:51;;;;;;;8.10;4.10;;;;;;;23.61;88.86;100830.27;712881;1177;115059;-74
2022/06/10 17:52:00;;;;;;;5.30;3.10;;;;;;;23.36;89.91;100838.94;712779;1178;116067;-72
2022/06/10 18:07:02;;;;;;;11.20;5.30;;;;;;;22.84;91.45;100840.52;712741;1177;117777;-73
2022/06/10 18:22:05;;;;;;;45.37;31.00;;;;;;;22.27;93.62;100846.88;713033;1177;115600;-76
2022/06/10 18:37:11;;;;;;;11.45;5.40;;;;;;;21.94;95.18;100854.73;712836;1177;116251;-75
2022/06/10 18:52:20;;;;;;;21.13;11.38;;;;;;;21.72;96.96;100873.51;712456;1178;116076;-76
2022/06/10 19:07:26;;;;;;;11.60;7.15;;;;;;;21.36;98.15;100897.61;712687;1178;115523;-75
2022/06/10 19:22:32;;;;;;;8.00;5.55;;;;;;;20.91;99.87;100916.45;712189;1177;114861;-76
2022/06/10 19:37:41;;;;;;;28.90;12.03;;;;;;;20.77;100.00;100923.45;713071;1180;115348;-76
2022/06/10 19:52:46;;;;;;;28.33;13.47;;;;;;;20.49;100.00;100939.28;712912;1178;116104;-75
2022/06/10 20:07:49;;;;;;;12.63;7.10;;;;;;;20.10;100.00;100947.36;713373;1179;116369;-74
2022/06/10 20:22:53;;;;;;;11.98;5.85;;;;;;;19.74;100.00;100955.98;712425;1180;114762;-75
2022/06/10 20:37:57;;;;;;;23.55;11.90;;;;;;;19.45;100.00;100968.18;713701;1180;114756;-74
2022/06/10 20:53:03;;;;;;;18.47;10.60;;;;;;;19.05;100.00;100961.28;712939;1178;115459;-75
2022/06/10 21:08:09;;;;;;;14.60;8.00;;;;;;;18.44;100.00;100959.18;713086;1177;116015;-76
2022/06/10 21:23:16;;;;;;;18.97;11.27;;;;;;;17.81;100.00;100974.83;713751;1170;116122;-75
2022/06/10 21:38:19;;;;;;;13.67;7.30;;;;;;;18.26;100.00;100973.47;712823;1180;115379;-74
2022/06/10 21:53:34;;;;;;;9.73;6.40;;;;;;;17.16;100.00;100962.34;713466;1177;116230;-74
2022/06/10 22:08:37;;;;;;;11.90;6.85;;;;;;;17.15;100.00;100971.27;712698;1177;116074;-74
2022/06/10 22:23:39;;;;;;;11.90;7.98;;;;;;;16.88;100.00;100960.72;712504;1177;115999;-74
2022/06/10 22:38:45;;;;;;;15.23;9.43;;;;;;;16.44;100.00;100951.10;712627;1177;115525;-74
2022/06/10 22:54:04;;;;;;;23.05;12.35;;;;;;;16.40;100.00;100939.14;712961;1178;115428;-74
2022/06/10 23:24:36;;;;;;;14.80;9.10;;;;;;;16.19;100.00;100936.05;712477;1180;115634;-74
2022/06/10 23:39:39;;;;;;;14.75;8.83;;;;;;;16.05;100.00;100909.18;712609;1177;116617;-74
2022/06/10 23:56:13;;;;;;;19.23;9.67;;;;;;;15.86;100.00;100912.84;712366;1179;116180;-74
